createdAt,value
2023-05-21T00:01:58.108Z,5.78
2023-05-21T00:04:40.554Z,5.45
2023-05-21T00:07:27.126Z,6.05
2023-05-21T00:10:07.247Z,6.47
2023-05-21T00:12:54.141Z,9.77
2023-05-21T00:15:34.400Z,8.00
2023-05-21T00:18:21.120Z,8.68
2023-05-21T00:21:01.778Z,6.68
2023-05-21T00:23:49.132Z,5.82
2023-05-21T00:26:29.166Z,7.53
2023-05-21T00:29:16.150Z,6.95
2023-05-21T00:34:44.110Z,7.25
2023-05-21T00:37:24.755Z,6.47
2023-05-21T00:40:14.124Z,10.48
2023-05-21T00:43:03.135Z,8.18
2023-05-21T00:45:47.396Z,7.10
2023-05-21T00:48:34.134Z,6.07
2023-05-21T00:51:22.110Z,6.65
2023-05-21T00:54:10.119Z,8.38
2023-05-21T00:56:58.007Z,8.48
2023-05-21T00:59:39.117Z,12.52
2023-05-21T01:02:26.288Z,7.38
2023-05-21T01:05:20.144Z,7.18
2023-05-21T01:08:08.134Z,6.78
2023-05-21T01:10:48.177Z,7.97
2023-05-21T01:13:36.118Z,7.07
2023-05-21T01:16:17.872Z,7.78
2023-05-21T01:19:06.206Z,6.93
2023-05-21T01:21:59.125Z,10.27
2023-05-21T01:24:39.676Z,7.57
2023-05-21T01:27:26.113Z,9.25
2023-05-21T01:30:15.127Z,7.72
2023-05-21T01:32:59.294Z,8.93
2023-05-21T01:35:51.136Z,7.30
2023-05-21T01:39:14.118Z,7.93
2023-05-21T01:41:56.248Z,9.27
2023-05-21T01:44:44.117Z,8.68
2023-05-21T01:47:26.080Z,8.57
2023-05-21T01:50:14.139Z,7.45
2023-05-21T01:53:01.113Z,8.15
2023-05-21T01:55:48.134Z,6.65
2023-05-21T01:58:35.173Z,8.73
2023-05-21T02:01:15.165Z,8.32
2023-05-21T02:04:09.314Z,9.13
2023-05-21T02:06:56.147Z,8.00
2023-05-21T02:09:43.148Z,8.68
2023-05-21T02:12:30.130Z,8.60
2023-05-21T02:15:18.241Z,9.48
2023-05-21T02:17:58.678Z,10.10
2023-05-21T02:20:45.162Z,7.28
2023-05-21T02:23:32.259Z,9.05
2023-05-21T02:26:12.130Z,9.23
2023-05-21T02:28:59.266Z,8.52
2023-05-21T02:34:20.722Z,9.13
2023-05-21T02:37:07.138Z,9.50
2023-05-21T02:39:54.149Z,10.18
2023-05-21T02:45:24.133Z,11.07
2023-05-21T02:48:11.208Z,9.07
2023-05-21T02:50:58.126Z,9.55
2023-05-21T02:53:45.148Z,7.93
2023-05-21T02:56:32.130Z,8.23
2023-05-21T02:59:12.204Z,7.85
2023-05-21T03:01:59.171Z,8.25
2023-05-21T03:04:53.121Z,8.93
2023-05-21T03:07:40.143Z,9.45
2023-05-21T03:10:21.243Z,9.35
2023-05-21T03:13:11.170Z,9.07
2023-05-21T03:15:51.192Z,9.13
2023-05-21T03:18:38.168Z,9.35
2023-05-21T03:24:05.139Z,8.02
2023-05-21T03:29:32.171Z,7.07
2023-05-21T03:32:14.408Z,7.78
2023-05-21T03:35:03.141Z,10.88
2023-05-21T03:37:43.184Z,8.20
2023-05-21T03:40:30.153Z,9.85
2023-05-21T03:43:10.210Z,10.63
2023-05-21T03:45:57.197Z,9.60
2023-05-21T03:48:58.111Z,8.63
2023-05-21T03:51:46.151Z,8.15
2023-05-21T03:54:27.203Z,9.07
2023-05-21T03:57:18.150Z,8.60
2023-05-21T04:02:55.258Z,7.95
2023-05-21T04:05:42.431Z,7.95
2023-05-21T04:08:22.141Z,8.85
2023-05-21T04:11:09.303Z,7.72
2023-05-21T04:13:49.178Z,9.50
2023-05-21T04:16:30.007Z,7.78
2023-05-21T04:19:17.181Z,8.13
2023-05-21T04:24:45.168Z,8.65
2023-05-21T04:27:29.835Z,7.20
2023-05-21T04:30:17.167Z,8.35
2023-05-21T04:33:04.291Z,7.63
2023-05-21T04:38:24.725Z,7.50
2023-05-21T04:41:11.163Z,6.68
2023-05-21T04:43:55.331Z,9.82
2023-05-21T04:46:45.240Z,7.40
2023-05-21T04:49:25.727Z,7.78
2023-05-21T04:52:13.164Z,6.57
2023-05-21T04:57:40.274Z,7.88
2023-05-21T05:00:27.153Z,10.27
2023-05-21T05:03:07.340Z,6.57
2023-05-21T05:05:54.146Z,7.90
2023-05-21T05:08:34.201Z,9.32
2023-05-21T05:11:21.159Z,7.00
2023-05-21T05:14:09.175Z,8.05
2023-05-21T05:16:57.194Z,9.20
2023-05-21T05:19:37.237Z,8.68
2023-05-21T05:22:24.174Z,8.32
2023-05-21T05:25:04.216Z,8.23
2023-05-21T05:27:51.145Z,8.07
2023-05-21T05:33:29.173Z,7.57
2023-05-21T05:36:10.396Z,10.40
2023-05-21T05:38:50.163Z,8.50
2023-05-21T05:41:30.877Z,9.55
2023-05-21T05:44:17.177Z,9.13
2023-05-21T05:46:57.637Z,10.25
2023-05-21T05:49:44.165Z,8.35
2023-05-21T05:52:24.642Z,9.52
2023-05-21T05:55:11.170Z,9.40
2023-05-21T05:57:58.166Z,8.07
2023-05-21T06:00:40.247Z,9.25
2023-05-21T06:03:27.276Z,9.35
2023-05-21T06:06:19.270Z,12.68
2023-05-21T06:09:00.160Z,10.98
2023-05-21T06:14:27.177Z,10.13
2023-05-21T06:17:14.192Z,11.45
2023-05-21T06:19:54.215Z,9.98
2023-05-21T06:22:41.184Z,10.15
2023-05-21T06:25:21.217Z,9.57
2023-05-21T06:28:08.182Z,9.77
2023-05-21T06:30:48.210Z,10.60
2023-05-21T06:33:35.234Z,10.10
2023-05-21T06:36:15.250Z,9.23
2023-05-21T06:39:03.159Z,9.93
2023-05-21T06:41:51.190Z,10.73
2023-05-21T06:44:53.668Z,10.85
2023-05-21T06:47:44.253Z,9.85
2023-05-21T06:50:31.159Z,10.43
2023-05-21T06:53:18.190Z,9.95
2023-05-21T06:55:58.708Z,9.50
2023-05-21T06:58:55.153Z,12.60
2023-05-21T07:01:42.215Z,18.70
2023-05-21T07:04:29.186Z,19.15
2023-05-21T07:07:10.030Z,9.25
2023-05-21T07:09:57.207Z,10.13
2023-05-21T07:12:44.181Z,11.63
2023-05-21T07:15:32.167Z,7.75
2023-05-21T07:18:26.175Z,12.93
2023-05-21T07:21:06.733Z,8.13
2023-05-21T07:23:53.172Z,8.68
2023-05-21T07:26:33.673Z,8.98
2023-05-21T07:29:20.203Z,9.38
2023-05-21T07:32:00.764Z,7.97
2023-05-21T07:34:49.185Z,8.02
2023-05-21T07:37:39.219Z,8.35
2023-05-21T07:43:14.231Z,7.30
2023-05-21T07:45:54.218Z,7.18
2023-05-21T07:48:41.173Z,7.88
2023-05-21T07:54:08.194Z,7.97
2023-05-21T07:59:54.193Z,7.30
2023-05-21T08:02:44.255Z,9.50
2023-05-21T08:05:32.186Z,6.03
2023-05-21T08:08:12.853Z,8.32
2023-05-21T08:13:48.202Z,6.55
2023-05-21T08:16:35.205Z,7.82
2023-05-21T08:19:22.253Z,7.70
2023-05-21T08:22:03.462Z,7.93
2023-05-21T08:24:53.204Z,7.32
2023-05-21T08:27:33.657Z,9.18
2023-05-21T08:30:21.193Z,7.07
2023-05-21T08:33:08.387Z,7.78
2023-05-21T08:35:48.185Z,7.22
2023-05-21T08:38:35.125Z,7.00
2023-05-21T08:41:27.211Z,7.47
2023-05-21T08:44:19.244Z,9.63
2023-05-21T08:47:01.186Z,8.65
2023-05-21T08:49:49.049Z,6.70
2023-05-21T08:52:29.193Z,7.72
2023-05-21T08:55:16.262Z,8.13
2023-05-21T08:57:57.199Z,8.93
2023-05-21T09:00:44.186Z,7.40
2023-05-21T09:03:46.254Z,7.63
2023-05-21T09:06:34.195Z,7.60
2023-05-21T09:09:38.195Z,7.35
2023-05-21T09:12:19.212Z,7.45
2023-05-21T09:15:07.187Z,7.35
2023-05-21T09:17:50.455Z,7.18
2023-05-21T09:21:00.195Z,8.02
2023-05-21T09:23:40.727Z,7.60
2023-05-21T09:26:27.213Z,8.05
2023-05-21T09:29:19.277Z,6.78
2023-05-21T09:32:01.193Z,6.13
2023-05-21T09:34:42.686Z,7.85
2023-05-21T09:37:30.220Z,6.93
2023-05-21T09:40:18.481Z,6.40
2023-05-21T09:43:07.210Z,9.13
2023-05-21T09:45:55.757Z,8.70
2023-05-21T09:48:52.208Z,6.43
2023-05-21T09:51:33.016Z,7.97
2023-05-21T09:54:20.208Z,7.40
2023-05-21T09:57:02.699Z,6.65
2023-05-21T09:59:50.186Z,6.30
2023-05-21T10:02:32.546Z,9.00
2023-05-21T10:05:24.226Z,10.55
2023-05-21T10:08:11.209Z,8.20
2023-05-21T10:11:00.267Z,8.63
2023-05-21T10:13:53.253Z,7.97
2023-05-21T10:16:35.345Z,6.35
2023-05-21T10:19:22.687Z,7.65
2023-05-21T10:22:04.455Z,7.57
2023-05-21T10:24:52.208Z,9.38
2023-05-21T10:27:35.399Z,8.15
2023-05-21T10:30:24.216Z,6.68
2023-05-21T10:33:13.234Z,8.15
2023-05-21T10:35:58.093Z,8.27
2023-05-21T10:38:47.206Z,8.48
2023-05-21T10:41:39.219Z,9.48
2023-05-21T10:44:42.274Z,7.25
2023-05-21T10:47:55.277Z,6.85
2023-05-21T10:50:39.279Z,6.60
2023-05-21T10:53:46.218Z,8.35
2023-05-21T10:56:55.236Z,11.00
2023-05-21T11:00:01.214Z,7.55
2023-05-21T11:02:41.356Z,7.97
2023-05-21T11:05:48.227Z,11.88
2023-05-21T11:08:37.533Z,7.95
2023-05-21T11:11:49.208Z,7.32
2023-05-21T11:14:36.714Z,8.13
2023-05-21T11:17:23.273Z,7.72
2023-05-21T11:20:11.289Z,8.88
2023-05-21T11:22:58.248Z,7.78
2023-05-21T11:25:38.284Z,12.68
2023-05-21T11:28:40.236Z,8.55
2023-05-21T11:31:44.275Z,8.90
2023-05-21T11:34:28.700Z,9.10
2023-05-21T11:37:31.240Z,8.75
2023-05-21T11:40:26.101Z,8.82
2023-05-21T11:43:13.266Z,8.55
2023-05-21T11:46:08.285Z,8.38
2023-05-21T11:48:57.243Z,8.52
2023-05-21T11:51:37.318Z,9.20
2023-05-21T11:54:25.248Z,9.18
2023-05-21T11:57:07.199Z,9.27
2023-05-21T11:59:56.250Z,9.82
2023-05-21T12:05:37.308Z,8.73
2023-05-21T12:08:17.285Z,8.10
2023-05-21T12:11:08.245Z,9.68
2023-05-21T12:13:48.743Z,9.45
2023-05-21T12:16:35.299Z,9.32
2023-05-21T12:19:16.510Z,8.43
2023-05-21T12:22:04.241Z,8.55
2023-05-21T12:24:53.886Z,8.80
2023-05-21T12:27:35.206Z,9.40
2023-05-21T12:30:22.255Z,9.65
2023-05-21T12:33:12.272Z,9.90
2023-05-21T12:35:59.325Z,10.73
2023-05-21T12:38:39.256Z,10.25
2023-05-21T12:41:21.262Z,9.98
2023-05-21T12:44:08.258Z,11.02
2023-05-21T12:46:55.385Z,10.00
2023-05-21T12:49:40.254Z,10.60
2023-05-21T12:52:27.455Z,10.02
2023-05-21T12:55:09.391Z,8.73
2023-05-21T12:57:56.318Z,9.23
2023-05-21T13:00:36.565Z,9.65
2023-05-21T13:03:17.088Z,11.05
2023-05-21T13:06:12.264Z,9.40
2023-05-21T13:08:59.315Z,10.45
2023-05-21T13:11:39.307Z,9.75
2023-05-21T13:14:19.732Z,11.02
2023-05-21T13:17:06.261Z,10.10
2023-05-21T13:20:21.664Z,11.30
2023-05-21T13:23:10.497Z,10.63
2023-05-21T13:25:51.750Z,9.70
2023-05-21T13:28:38.254Z,10.65
2023-05-21T13:31:25.377Z,13.90
2023-05-21T13:34:05.619Z,10.48
2023-05-21T13:36:52.325Z,9.70
2023-05-21T13:39:34.277Z,12.23
2023-05-21T13:42:15.923Z,11.43
2023-05-21T13:45:03.318Z,11.13
2023-05-21T13:47:45.507Z,11.38
2023-05-21T13:50:32.283Z,9.07
2023-05-21T13:53:12.783Z,11.30
2023-05-21T13:55:59.275Z,10.73
2023-05-21T13:58:47.290Z,11.57
2023-05-21T14:01:34.342Z,10.70
2023-05-21T14:04:14.787Z,10.30
2023-05-21T14:07:01.304Z,14.48
2023-05-21T14:09:48.440Z,10.07
2023-05-21T14:12:28.282Z,10.63
2023-05-21T14:15:09.152Z,11.02
2023-05-21T14:17:56.382Z,9.25
2023-05-21T14:20:43.335Z,11.48
2023-05-21T14:23:23.280Z,10.75
2023-05-21T14:26:03.919Z,10.90
2023-05-21T14:28:50.294Z,11.35
2023-05-21T14:31:30.891Z,12.07
2023-05-21T14:34:17.264Z,11.27
2023-05-21T14:37:04.281Z,10.75
2023-05-21T14:39:51.296Z,12.32
2023-05-21T14:42:38.392Z,13.20
2023-05-21T14:45:19.394Z,9.85
2023-05-21T14:48:06.315Z,10.32
2023-05-21T14:50:53.298Z,10.48
2023-05-21T14:53:33.757Z,10.90
2023-05-21T14:56:21.327Z,11.48
2023-05-21T14:59:08.390Z,9.57
2023-05-21T15:01:48.329Z,9.82
2023-05-21T15:04:35.457Z,8.55
2023-05-21T15:07:29.281Z,8.10
2023-05-21T15:10:10.553Z,8.93
2023-05-21T15:12:57.292Z,7.15
2023-05-21T15:15:38.107Z,9.85
2023-05-21T15:18:25.295Z,10.57
2023-05-21T15:21:06.005Z,9.00
2023-05-21T15:23:52.282Z,8.98
2023-05-21T15:26:39.339Z,10.27
2023-05-21T15:29:19.286Z,9.50
2023-05-21T15:32:06.326Z,8.80
2023-05-21T15:34:46.372Z,8.32
2023-05-21T15:37:26.760Z,11.50
2023-05-21T15:40:15.285Z,10.20
2023-05-21T15:43:02.297Z,8.35
2023-05-21T15:45:42.364Z,8.73
2023-05-21T15:48:29.294Z,9.77
2023-05-21T15:51:09.384Z,9.18
2023-05-21T15:53:56.297Z,6.97
2023-05-21T15:56:36.461Z,8.80
2023-05-21T15:59:23.292Z,8.73
2023-05-21T16:02:03.395Z,10.27
2023-05-21T16:04:50.303Z,7.57
2023-05-21T16:07:38.365Z,11.15
2023-05-21T16:10:18.303Z,7.82
2023-05-21T16:12:59.160Z,8.75
2023-05-21T16:15:46.302Z,9.75
2023-05-21T16:18:33.337Z,8.68
2023-05-21T16:21:13.305Z,8.90
2023-05-21T16:23:53.847Z,8.13
2023-05-21T16:26:40.320Z,9.30
2023-05-21T16:29:22.048Z,8.80
2023-05-21T16:32:09.324Z,12.38
2023-05-21T16:34:49.866Z,11.15
2023-05-21T16:37:36.298Z,10.15
2023-05-21T16:40:23.393Z,9.77
2023-05-21T16:43:03.301Z,8.73
2023-05-21T16:45:46.323Z,7.85
2023-05-21T16:48:33.341Z,8.23
2023-05-21T16:51:13.867Z,10.57
2023-05-21T16:54:00.312Z,10.45
2023-05-21T16:56:40.764Z,8.65
2023-05-21T16:59:27.328Z,9.02
2023-05-21T17:02:09.915Z,8.50
2023-05-21T17:04:56.302Z,8.80
2023-05-21T17:07:43.420Z,10.48
2023-05-21T17:10:23.315Z,7.70
2023-05-21T17:13:21.536Z,8.63
2023-05-21T17:16:02.337Z,10.40
2023-05-21T17:18:49.428Z,11.10
2023-05-21T17:21:29.306Z,10.02
2023-05-21T17:24:09.790Z,10.32
2023-05-21T17:26:56.318Z,10.00
2023-05-21T17:29:43.324Z,9.73
2023-05-21T17:32:23.401Z,9.82
2023-05-21T17:35:10.317Z,9.82
2023-05-21T17:37:50.504Z,9.23
2023-05-21T17:40:37.362Z,8.38
2023-05-21T17:43:17.966Z,11.55
2023-05-21T17:46:04.338Z,8.05
2023-05-21T17:48:44.406Z,11.68
2023-05-21T17:51:31.329Z,9.68
2023-05-21T17:54:18.306Z,11.32
2023-05-21T17:56:58.777Z,10.02
2023-05-21T17:59:46.328Z,11.13
2023-05-21T18:02:33.407Z,9.98
2023-05-21T18:05:13.314Z,9.63
2023-05-21T18:08:04.074Z,11.50
2023-05-21T18:10:43.323Z,10.23
2023-05-21T18:13:23.949Z,9.93
2023-05-21T18:16:11.322Z,13.05
2023-05-21T18:18:51.840Z,11.00
2023-05-21T18:21:38.338Z,13.38
2023-05-21T18:24:18.776Z,10.70
2023-05-21T18:27:05.332Z,10.50
2023-05-21T18:29:46.911Z,13.88
2023-05-21T18:32:33.336Z,11.18
2023-05-21T18:35:15.798Z,12.20
2023-05-21T18:38:03.349Z,13.20
2023-05-21T18:40:43.856Z,12.02
2023-05-21T18:43:30.341Z,12.05
2023-05-21T18:46:10.862Z,12.30
2023-05-21T18:48:57.319Z,13.98
2023-05-21T18:51:44.394Z,11.50
2023-05-21T18:54:24.338Z,11.02
2023-05-21T18:57:04.942Z,13.50
2023-05-21T18:59:51.354Z,12.15
2023-05-21T19:02:31.861Z,12.20
2023-05-21T19:05:19.399Z,13.20
2023-05-21T19:08:06.465Z,13.02
2023-05-21T19:10:46.323Z,12.20
2023-05-21T19:13:26.885Z,13.20
2023-05-21T19:16:17.423Z,11.30
2023-05-21T19:19:04.455Z,11.52
2023-05-21T19:21:44.397Z,13.35
2023-05-21T19:24:31.354Z,14.57
2023-05-21T19:27:11.361Z,17.00
2023-05-21T19:30:06.327Z,15.38
2023-05-21T19:32:46.955Z,15.30
2023-05-21T19:35:34.348Z,20.02
2023-05-21T19:38:15.574Z,16.10
2023-05-21T19:41:03.328Z,15.32
2023-05-21T19:43:51.326Z,13.15
2023-05-21T19:46:38.333Z,19.63
2023-05-21T19:49:19.964Z,18.83
2023-05-21T19:52:06.338Z,15.35
2023-05-21T19:54:46.838Z,16.80
2023-05-21T19:57:33.340Z,16.85
2023-05-21T20:00:21.469Z,16.10
2023-05-21T20:03:02.409Z,18.42
2023-05-21T20:05:56.336Z,18.00
2023-05-21T20:08:43.361Z,16.20
2023-05-21T20:11:30.338Z,15.57
2023-05-21T20:14:10.882Z,17.35
2023-05-21T20:16:57.358Z,17.10
2023-05-21T20:19:47.899Z,16.13
2023-05-21T20:22:28.342Z,16.10
2023-05-21T20:25:16.326Z,15.85
2023-05-21T20:28:05.979Z,16.27
2023-05-21T20:31:06.401Z,17.27
2023-05-21T20:33:53.370Z,20.30
2023-05-21T20:36:41.377Z,14.50
2023-05-21T20:39:21.425Z,16.85
2023-05-21T20:42:08.362Z,13.45
2023-05-21T20:44:56.335Z,18.80
2023-05-21T20:47:43.606Z,19.38
2023-05-21T20:50:24.339Z,18.45
2023-05-21T20:53:15.744Z,15.18
2023-05-21T20:55:55.342Z,17.30
2023-05-21T20:58:42.321Z,17.35
2023-05-21T21:01:29.378Z,17.15
2023-05-21T21:04:09.872Z,15.75
2023-05-21T21:06:56.369Z,17.35
2023-05-21T21:09:37.274Z,18.00
2023-05-21T21:12:26.679Z,16.15
2023-05-21T21:15:14.340Z,19.33
2023-05-21T21:17:54.448Z,17.65
2023-05-21T21:20:41.682Z,17.58
2023-05-21T21:23:28.340Z,18.48
2023-05-21T21:26:16.519Z,16.65
2023-05-21T21:28:56.436Z,18.83
2023-05-21T21:31:51.324Z,17.75
2023-05-21T21:34:31.826Z,17.55
2023-05-21T21:37:18.342Z,16.02
2023-05-21T21:40:05.376Z,15.60
2023-05-21T21:42:46.319Z,17.60
2023-05-21T21:45:33.431Z,15.10
2023-05-21T21:48:20.360Z,16.92
2023-05-21T21:51:00.836Z,17.95
2023-05-21T21:53:48.361Z,20.25
2023-05-21T21:56:36.349Z,17.40
2023-05-21T21:59:16.852Z,19.30
2023-05-21T22:02:03.355Z,16.40
2023-05-21T22:04:50.406Z,16.80
2023-05-21T22:07:38.642Z,17.80
2023-05-21T22:10:22.351Z,21.65
2023-05-21T22:13:02.841Z,18.60
2023-05-21T22:15:49.359Z,19.30
2023-05-21T22:18:39.639Z,16.80
2023-05-21T22:21:27.445Z,20.10
2023-05-21T22:24:14.902Z,19.00
2023-05-21T22:27:11.355Z,19.77
2023-05-21T22:29:51.906Z,16.60
2023-05-21T22:32:38.414Z,19.05
2023-05-21T22:35:19.567Z,20.83
2023-05-21T22:38:06.357Z,18.35
2023-05-21T22:40:53.377Z,17.42
2023-05-21T22:43:33.490Z,19.70
2023-05-21T22:46:20.448Z,19.17
2023-05-21T22:49:00.472Z,22.25
2023-05-21T22:51:51.390Z,19.42
2023-05-21T22:54:31.545Z,19.73
2023-05-21T22:57:18.389Z,21.80
2023-05-21T23:00:05.369Z,24.55
2023-05-21T23:02:56.530Z,20.65
2023-05-21T23:05:43.422Z,18.98
2023-05-21T23:08:37.373Z,19.08
2023-05-21T23:11:24.373Z,21.52
2023-05-21T23:14:11.384Z,18.48
2023-05-21T23:17:00.379Z,17.67
2023-05-21T23:19:47.373Z,22.90
2023-05-21T23:22:27.857Z,21.75
2023-05-21T23:25:14.413Z,20.38
2023-05-21T23:28:01.406Z,20.60
2023-05-21T23:30:41.512Z,22.23
2023-05-21T23:33:21.877Z,17.42
2023-05-21T23:36:08.387Z,18.67
2023-05-21T23:38:48.891Z,18.20
2023-05-21T23:41:35.360Z,20.98
2023-05-21T23:44:22.382Z,22.75
2023-05-21T23:47:02.468Z,21.20
2023-05-21T23:49:49.381Z,22.63
2023-05-21T23:52:36.432Z,22.33
2023-05-21T23:55:23.399Z,20.38
2023-05-21T23:58:04.154Z,24.48
